Te Ho — H3MG — position and weather

sailwx.info

Track history (hours):
 
Tides and Currents Weather Stations Pressure Air Temp Water Temp Dewpoint Dewpoint Depression Visibility Wind Speed Wind Dir Waves Ship Positions

Te Ho

Last reported at 2017-Nov-07 12:38 UTC. Time now 2017-Nov-19 01:24 UTC.
Position N 22°40' E 120°00'.
Warning: this ship's position is 11 days out of date.

Length 225 m; draft 14.1 m.

Type: Cargo ship. MMSI: 353837000.

Date/timePositionNaut miles runAvg speedWind from/ knotsBaromVisibWave heightAir tempDewpointWater temp
2017-Nov-07 12:38N 22°40' E 120°00'110.3
2017-Nov-07 12:30N 22°39' E 120°01'510.2
2017-Nov-07 12:00N 22°35' E 120°04'4 8.4
2017-Nov-07 11:30N 22°34' E 120°09'3 6.9
2017-Nov-07 11:00N 22°34' E 120°13'1 1.4
2017-Nov-07 10:30N 22°34' E 120°13'0 0.2
2017-Nov-07 10:00N 22°34' E 120°13'0 0.0
2017-Nov-07 09:29N 22°34' E 120°13'0 0.1
2017-Nov-07 08:59N 22°34' E 120°13'0 0.1
2017-Nov-07 08:23N 22°34' E 120°13'0 0.1
2017-Nov-07 07:59N 22°34' E 120°13'0 0.0
2017-Nov-07 07:29N 22°34' E 120°13'0 0.0
2017-Nov-07 06:59N 22°34' E 120°13'0 0.0
2017-Nov-07 06:29N 22°34' E 120°13'0 0.0
2017-Nov-07 05:59N 22°34' E 120°13'0 0.1
2017-Nov-07 05:29N 22°34' E 120°13'0 0.0
2017-Nov-07 04:59N 22°34' E 120°13'0 0.1
2017-Nov-07 04:29N 22°34' E 120°13'0 0.1
2017-Nov-07 03:59N 22°34' E 120°13'0 0.1
2017-Nov-07 03:29N 22°34' E 120°13'0 0.1
2017-Nov-07 02:59N 22°34' E 120°13'0 0.6
2017-Nov-07 02:30N 22°34' E 120°13'1 2.3
2017-Nov-07 02:00N 22°35' E 120°12'2 4.2
2017-Nov-07 01:30N 22°36' E 120°10'1 2.9
2017-Nov-07 01:00N 22°37' E 120°12'2 4.7
2017-Nov-07 00:30N 22°35' E 120°13'1 2.2
2017-Nov-06 23:58N 22°33' E 120°13'0 0.2
2017-Nov-06 23:28N 22°33' E 120°14'0 0.1
2017-Nov-06 22:55N 22°34' E 120°14'0 0.0
2017-Nov-06 22:25N 22°34' E 120°14'0 0.0
2017-Nov-06 21:58N 22°34' E 120°14'0 0.5
2017-Nov-06 21:28N 22°33' E 120°13'0 0.1
2017-Nov-06 20:58N 22°33' E 120°13'0 0.1
2017-Nov-06 20:28N 22°34' E 120°13'  
Track history (hours):
 
Tides and Currents Weather Stations Pressure Air Temp Water Temp Dewpoint Dewpoint Depression Visibility Wind Speed Wind Dir Waves Ship Positions

Te Ho

Last reported at 2017-Nov-07 12:38 UTC. Time now 2017-Nov-19 01:24 UTC.
Position N 22°40' E 120°00'.
Warning: this ship's position is 11 days out of date.

Length 225 m; draft 14.1 m.

Type: Cargo ship. MMSI: 353837000.

Date/timePositionNaut miles runAvg speedWind from/ knotsBaromVisibWave heightAir tempDewpointWater temp
2017-Nov-07 12:38N 22°40' E 120°00'110.3
2017-Nov-07 12:30N 22°39' E 120°01'510.2
2017-Nov-07 12:00N 22°35' E 120°04'4 8.4
2017-Nov-07 11:30N 22°34' E 120°09'3 6.9
2017-Nov-07 11:00N 22°34' E 120°13'1 1.4
2017-Nov-07 10:30N 22°34' E 120°13'0 0.2
2017-Nov-07 10:00N 22°34' E 120°13'0 0.0
2017-Nov-07 09:29N 22°34' E 120°13'0 0.1
2017-Nov-07 08:59N 22°34' E 120°13'0 0.1
2017-Nov-07 08:23N 22°34' E 120°13'0 0.1
2017-Nov-07 07:59N 22°34' E 120°13'0 0.0
2017-Nov-07 07:29N 22°34' E 120°13'0 0.0
2017-Nov-07 06:59N 22°34' E 120°13'0 0.0
2017-Nov-07 06:29N 22°34' E 120°13'0 0.0
2017-Nov-07 05:59N 22°34' E 120°13'0 0.1
2017-Nov-07 05:29N 22°34' E 120°13'0 0.0
2017-Nov-07 04:59N 22°34' E 120°13'0 0.1
2017-Nov-07 04:29N 22°34' E 120°13'0 0.1
2017-Nov-07 03:59N 22°34' E 120°13'0 0.1
2017-Nov-07 03:29N 22°34' E 120°13'0 0.1
2017-Nov-07 02:59N 22°34' E 120°13'0 0.6
2017-Nov-07 02:30N 22°34' E 120°13'1 2.3
2017-Nov-07 02:00N 22°35' E 120°12'2 4.2
2017-Nov-07 01:30N 22°36' E 120°10'1 2.9
2017-Nov-07 01:00N 22°37' E 120°12'2 4.7
2017-Nov-07 00:30N 22°35' E 120°13'1 2.2
2017-Nov-06 23:58N 22°33' E 120°13'0 0.2
2017-Nov-06 23:28N 22°33' E 120°14'0 0.1
2017-Nov-06 22:55N 22°34' E 120°14'0 0.0
2017-Nov-06 22:25N 22°34' E 120°14'0 0.0
2017-Nov-06 21:58N 22°34' E 120°14'0 0.5
2017-Nov-06 21:28N 22°33' E 120°13'0 0.1
2017-Nov-06 20:58N 22°33' E 120°13'0 0.1
2017-Nov-06 20:28N 22°34' E 120°13'  

Dump ship's entire track history